sensor_id;sensor_type;location;lat;lon;timestamp;temperature;humidity
23233;DHT22;11785;49.500;8.288;2024-02-23T00:02:16;8.50;94.70
23233;DHT22;11785;49.500;8.288;2024-02-23T00:04:41;8.50;94.40
23233;DHT22;11785;49.500;8.288;2024-02-23T00:07:07;8.50;93.80
23233;DHT22;11785;49.500;8.288;2024-02-23T00:09:33;8.60;92.70
23233;DHT22;11785;49.500;8.288;2024-02-23T00:11:59;8.70;92.60
23233;DHT22;11785;49.500;8.288;2024-02-23T00:14:24;8.60;93.00
23233;DHT22;11785;49.500;8.288;2024-02-23T00:16:50;8.50;93.20
23233;DHT22;11785;49.500;8.288;2024-02-23T00:19:16;8.50;93.20
23233;DHT22;11785;49.500;8.288;2024-02-23T00:21:43;8.50;93.10
23233;DHT22;11785;49.500;8.288;2024-02-23T00:24:13;8.50;93.20
23233;DHT22;11785;49.500;8.288;2024-02-23T00:26:38;8.50;93.10
23233;DHT22;11785;49.500;8.288;2024-02-23T00:29:04;8.40;93.50
23233;DHT22;11785;49.500;8.288;2024-02-23T00:31:29;8.40;93.70
23233;DHT22;11785;49.500;8.288;2024-02-23T00:33:55;8.30;94.10
23233;DHT22;11785;49.500;8.288;2024-02-23T00:36:21;8.20;94.20
23233;DHT22;11785;49.500;8.288;2024-02-23T00:38:46;8.10;94.50
23233;DHT22;11785;49.500;8.288;2024-02-23T00:41:12;8.00;94.90
23233;DHT22;11785;49.500;8.288;2024-02-23T00:43:38;8.00;94.60
23233;DHT22;11785;49.500;8.288;2024-02-23T00:46:04;8.10;94.40
23233;DHT22;11785;49.500;8.288;2024-02-23T00:48:30;8.10;94.00
23233;DHT22;11785;49.500;8.288;2024-02-23T00:50:56;8.10;94.00
23233;DHT22;11785;49.500;8.288;2024-02-23T00:53:21;8.10;94.00
23233;DHT22;11785;49.500;8.288;2024-02-23T00:55:47;8.10;94.10
23233;DHT22;11785;49.500;8.288;2024-02-23T00:58:13;8.00;94.50
23233;DHT22;11785;49.500;8.288;2024-02-23T01:00:38;8.00;94.20
23233;DHT22;11785;49.500;8.288;2024-02-23T01:03:04;7.90;94.80
23233;DHT22;11785;49.500;8.288;2024-02-23T01:05:30;7.90;94.80
23233;DHT22;11785;49.500;8.288;2024-02-23T01:07:56;7.80;95.20
23233;DHT22;11785;49.500;8.288;2024-02-23T01:10:21;7.70;95.60
23233;DHT22;11785;49.500;8.288;2024-02-23T01:12:47;7.80;95.20
23233;DHT22;11785;49.500;8.288;2024-02-23T01:15:12;7.80;94.80
23233;DHT22;11785;49.500;8.288;2024-02-23T01:17:38;7.80;94.80
23233;DHT22;11785;49.500;8.288;2024-02-23T01:20:04;7.90;94.20
23233;DHT22;11785;49.500;8.288;2024-02-23T01:22:30;8.00;94.40
23233;DHT22;11785;49.500;8.288;2024-02-23T01:24:56;8.00;94.30
23233;DHT22;11785;49.500;8.288;2024-02-23T01:27:21;7.50;99.90
23233;DHT22;11785;49.500;8.288;2024-02-23T01:29:47;6.30;99.90
23233;DHT22;11785;49.500;8.288;2024-02-23T01:32:13;5.60;99.90
23233;DHT22;11785;49.500;8.288;2024-02-23T01:34:38;5.20;99.90
23233;DHT22;11785;49.500;8.288;2024-02-23T01:37:04;5.00;99.90
23233;DHT22;11785;49.500;8.288;2024-02-23T01:39:29;4.90;99.90
23233;DHT22;11785;49.500;8.288;2024-02-23T01:41:55;4.80;99.90
23233;DHT22;11785;49.500;8.288;2024-02-23T01:44:20;4.80;99.90
23233;DHT22;11785;49.500;8.288;2024-02-23T01:46:47;4.70;99.90
23233;DHT22;11785;49.500;8.288;2024-02-23T01:49:13;4.70;99.90
23233;DHT22;11785;49.500;8.288;2024-02-23T01:51:39;4.70;99.90
23233;DHT22;11785;49.500;8.288;2024-02-23T01:54:05;4.70;99.90
23233;DHT22;11785;49.500;8.288;2024-02-23T01:56:32;4.70;99.90
23233;DHT22;11785;49.500;8.288;2024-02-23T01:58:59;4.70;99.90
23233;DHT22;11785;49.500;8.288;2024-02-23T02:01:24;4.70;99.90
23233;DHT22;11785;49.500;8.288;2024-02-23T02:03:50;4.70;99.90
23233;DHT22;11785;49.500;8.288;2024-02-23T02:06:16;4.80;99.90
23233;DHT22;11785;49.500;8.288;2024-02-23T02:08:41;4.90;99.90
23233;DHT22;11785;49.500;8.288;2024-02-23T02:11:07;4.90;99.90
23233;DHT22;11785;49.500;8.288;2024-02-23T02:13:32;4.80;99.90
23233;DHT22;11785;49.500;8.288;2024-02-23T02:16:01;4.90;99.90
23233;DHT22;11785;49.500;8.288;2024-02-23T02:18:27;4.80;99.90
23233;DHT22;11785;49.500;8.288;2024-02-23T02:20:57;4.80;99.90
23233;DHT22;11785;49.500;8.288;2024-02-23T02:23:23;4.90;99.90
23233;DHT22;11785;49.500;8.288;2024-02-23T02:25:53;5.00;99.90
23233;DHT22;11785;49.500;8.288;2024-02-23T02:28:19;5.00;99.90
23233;DHT22;11785;49.500;8.288;2024-02-23T02:30:44;4.90;99.90
23233;DHT22;11785;49.500;8.288;2024-02-23T02:33:10;5.00;99.90
23233;DHT22;11785;49.500;8.288;2024-02-23T02:35:35;5.00;99.90
23233;DHT22;11785;49.500;8.288;2024-02-23T02:38:01;5.10;99.90
23233;DHT22;11785;49.500;8.288;2024-02-23T02:40:26;5.10;99.90
23233;DHT22;11785;49.500;8.288;2024-02-23T02:42:52;5.10;99.90
23233;DHT22;11785;49.500;8.288;2024-02-23T02:45:17;5.30;99.90
23233;DHT22;11785;49.500;8.288;2024-02-23T02:47:43;5.30;99.90
23233;DHT22;11785;49.500;8.288;2024-02-23T02:50:09;5.40;99.90
23233;DHT22;11785;49.500;8.288;2024-02-23T02:52:34;5.60;99.90
23233;DHT22;11785;49.500;8.288;2024-02-23T02:55:00;5.50;99.90
23233;DHT22;11785;49.500;8.288;2024-02-23T02:57:25;5.60;99.90
23233;DHT22;11785;49.500;8.288;2024-02-23T02:59:51;5.70;99.90
23233;DHT22;11785;49.500;8.288;2024-02-23T03:02:17;5.70;99.90
23233;DHT22;11785;49.500;8.288;2024-02-23T03:04:49;5.60;99.90
23233;DHT22;11785;49.500;8.288;2024-02-23T03:07:16;5.50;99.90
23233;DHT22;11785;49.500;8.288;2024-02-23T03:09:42;5.40;99.90
23233;DHT22;11785;49.500;8.288;2024-02-23T03:12:08;5.30;99.90
23233;DHT22;11785;49.500;8.288;2024-02-23T03:14:33;5.20;99.90
23233;DHT22;11785;49.500;8.288;2024-02-23T03:16:59;5.20;99.90
23233;DHT22;11785;49.500;8.288;2024-02-23T03:19:25;5.20;99.90
23233;DHT22;11785;49.500;8.288;2024-02-23T03:21:51;5.10;99.90
23233;DHT22;11785;49.500;8.288;2024-02-23T03:24:17;5.10;99.90
23233;DHT22;11785;49.500;8.288;2024-02-23T03:26:43;5.10;99.90
23233;DHT22;11785;49.500;8.288;2024-02-23T03:29:09;5.20;99.90
23233;DHT22;11785;49.500;8.288;2024-02-23T03:31:35;5.30;99.90
23233;DHT22;11785;49.500;8.288;2024-02-23T03:34:01;5.30;99.90
23233;DHT22;11785;49.500;8.288;2024-02-23T03:36:27;5.30;99.90
23233;DHT22;11785;49.500;8.288;2024-02-23T03:38:52;5.20;99.90
23233;DHT22;11785;49.500;8.288;2024-02-23T03:41:18;5.20;99.90
23233;DHT22;11785;49.500;8.288;2024-02-23T03:43:43;5.10;99.90
23233;DHT22;11785;49.500;8.288;2024-02-23T03:46:09;5.10;99.90
23233;DHT22;11785;49.500;8.288;2024-02-23T03:48:34;5.00;99.90
23233;DHT22;11785;49.500;8.288;2024-02-23T03:51:03;4.90;99.90
23233;DHT22;11785;49.500;8.288;2024-02-23T03:53:29;4.90;99.90
23233;DHT22;11785;49.500;8.288;2024-02-23T03:55:55;5.00;99.90
23233;DHT22;11785;49.500;8.288;2024-02-23T03:58:21;5.10;99.90
23233;DHT22;11785;49.500;8.288;2024-02-23T04:00:47;5.20;99.90
23233;DHT22;11785;49.500;8.288;2024-02-23T04:03:12;5.20;99.90
23233;DHT22;11785;49.500;8.288;2024-02-23T04:05:38;5.20;99.90
23233;DHT22;11785;49.500;8.288;2024-02-23T04:08:04;5.10;99.90
23233;DHT22;11785;49.500;8.288;2024-02-23T04:10:29;5.10;99.90
23233;DHT22;11785;49.500;8.288;2024-02-23T04:12:55;5.10;99.90
23233;DHT22;11785;49.500;8.288;2024-02-23T04:15:20;5.10;99.90
23233;DHT22;11785;49.500;8.288;2024-02-23T04:17:46;5.10;99.90
23233;DHT22;11785;49.500;8.288;2024-02-23T04:20:12;5.00;99.90
23233;DHT22;11785;49.500;8.288;2024-02-23T04:22:37;5.00;99.90
23233;DHT22;11785;49.500;8.288;2024-02-23T04:25:04;5.00;99.90
23233;DHT22;11785;49.500;8.288;2024-02-23T04:27:30;4.90;99.90
23233;DHT22;11785;49.500;8.288;2024-02-23T04:29:56;4.90;99.90
23233;DHT22;11785;49.500;8.288;2024-02-23T04:32:21;4.90;99.90
23233;DHT22;11785;49.500;8.288;2024-02-23T04:34:47;4.90;99.90
23233;DHT22;11785;49.500;8.288;2024-02-23T04:37:12;4.90;99.90
23233;DHT22;11785;49.500;8.288;2024-02-23T04:39:38;5.10;99.90
23233;DHT22;11785;49.500;8.288;2024-02-23T04:42:07;5.30;99.90
23233;DHT22;11785;49.500;8.288;2024-02-23T04:44:34;5.40;99.90
23233;DHT22;11785;49.500;8.288;2024-02-23T04:47:00;5.50;99.90
23233;DHT22;11785;49.500;8.288;2024-02-23T04:49:25;5.50;99.90
23233;DHT22;11785;49.500;8.288;2024-02-23T04:51:51;5.40;99.90
23233;DHT22;11785;49.500;8.288;2024-02-23T04:54:16;5.60;99.90
23233;DHT22;11785;49.500;8.288;2024-02-23T04:56:42;5.70;99.90
23233;DHT22;11785;49.500;8.288;2024-02-23T04:59:08;5.80;99.90
23233;DHT22;11785;49.500;8.288;2024-02-23T05:01:37;5.90;99.90
23233;DHT22;11785;49.500;8.288;2024-02-23T05:04:03;5.90;99.90
23233;DHT22;11785;49.500;8.288;2024-02-23T05:06:29;6.00;99.90
23233;DHT22;11785;49.500;8.288;2024-02-23T05:08:55;5.90;99.90
23233;DHT22;11785;49.500;8.288;2024-02-23T05:11:20;6.10;99.90
23233;DHT22;11785;49.500;8.288;2024-02-23T05:13:47;6.10;99.90
23233;DHT22;11785;49.500;8.288;2024-02-23T05:16:14;6.20;99.90
23233;DHT22;11785;49.500;8.288;2024-02-23T05:18:40;6.30;99.90
23233;DHT22;11785;49.500;8.288;2024-02-23T05:21:06;6.30;99.90
23233;DHT22;11785;49.500;8.288;2024-02-23T05:23:32;6.30;99.90
23233;DHT22;11785;49.500;8.288;2024-02-23T05:25:58;6.20;99.90
23233;DHT22;11785;49.500;8.288;2024-02-23T05:28:23;6.30;99.90
23233;DHT22;11785;49.500;8.288;2024-02-23T05:30:49;6.40;99.90
23233;DHT22;11785;49.500;8.288;2024-02-23T05:33:14;6.40;99.90
23233;DHT22;11785;49.500;8.288;2024-02-23T05:35:40;6.40;99.90
23233;DHT22;11785;49.500;8.288;2024-02-23T05:38:05;6.40;99.90
23233;DHT22;11785;49.500;8.288;2024-02-23T05:40:31;6.40;99.90
23233;DHT22;11785;49.500;8.288;2024-02-23T05:42:58;6.40;99.90
23233;DHT22;11785;49.500;8.288;2024-02-23T05:45:24;6.40;99.90
23233;DHT22;11785;49.500;8.288;2024-02-23T05:47:49;6.40;99.90
23233;DHT22;11785;49.500;8.288;2024-02-23T05:50:15;6.30;99.90
23233;DHT22;11785;49.500;8.288;2024-02-23T05:52:41;6.40;99.90
23233;DHT22;11785;49.500;8.288;2024-02-23T05:55:07;6.30;99.90
23233;DHT22;11785;49.500;8.288;2024-02-23T05:57:33;6.30;99.90
23233;DHT22;11785;49.500;8.288;2024-02-23T05:59:59;6.30;99.90
23233;DHT22;11785;49.500;8.288;2024-02-23T06:02:24;6.30;99.90
23233;DHT22;11785;49.500;8.288;2024-02-23T06:04:50;6.30;99.90
23233;DHT22;11785;49.500;8.288;2024-02-23T06:07:16;6.20;99.90
23233;DHT22;11785;49.500;8.288;2024-02-23T06:09:42;6.30;99.90
23233;DHT22;11785;49.500;8.288;2024-02-23T06:12:08;6.30;99.90
23233;DHT22;11785;49.500;8.288;2024-02-23T06:14:34;6.20;99.90
23233;DHT22;11785;49.500;8.288;2024-02-23T06:17:00;6.30;99.90
23233;DHT22;11785;49.500;8.288;2024-02-23T06:19:26;6.30;99.90
23233;DHT22;11785;49.500;8.288;2024-02-23T06:21:51;6.40;99.90
23233;DHT22;11785;49.500;8.288;2024-02-23T06:24:17;6.40;99.90
23233;DHT22;11785;49.500;8.288;2024-02-23T06:26:43;6.40;99.90
23233;DHT22;11785;49.500;8.288;2024-02-23T06:29:08;6.40;99.90
23233;DHT22;11785;49.500;8.288;2024-02-23T06:31:37;6.40;99.90
23233;DHT22;11785;49.500;8.288;2024-02-23T06:34:03;6.40;99.90
23233;DHT22;11785;49.500;8.288;2024-02-23T06:36:29;6.40;99.90
23233;DHT22;11785;49.500;8.288;2024-02-23T06:38:54;6.40;99.90
23233;DHT22;11785;49.500;8.288;2024-02-23T06:41:20;6.40;99.90
23233;DHT22;11785;49.500;8.288;2024-02-23T06:43:46;6.40;99.90
23233;DHT22;11785;49.500;8.288;2024-02-23T06:46:11;6.40;99.90
23233;DHT22;11785;49.500;8.288;2024-02-23T06:48:38;6.40;99.90
23233;DHT22;11785;49.500;8.288;2024-02-23T06:51:04;6.40;99.90
23233;DHT22;11785;49.500;8.288;2024-02-23T06:53:30;6.40;99.90
23233;DHT22;11785;49.500;8.288;2024-02-23T06:55:56;6.40;99.90
23233;DHT22;11785;49.500;8.288;2024-02-23T06:58:21;6.40;99.90
23233;DHT22;11785;49.500;8.288;2024-02-23T07:00:47;6.30;99.90
23233;DHT22;11785;49.500;8.288;2024-02-23T07:03:13;6.30;99.90
23233;DHT22;11785;49.500;8.288;2024-02-23T07:05:40;6.30;99.90
23233;DHT22;11785;49.500;8.288;2024-02-23T07:08:07;6.30;99.90
23233;DHT22;11785;49.500;8.288;2024-02-23T07:10:33;6.30;99.90
23233;DHT22;11785;49.500;8.288;2024-02-23T07:12:59;6.30;99.90
23233;DHT22;11785;49.500;8.288;2024-02-23T07:15:24;6.30;99.90
23233;DHT22;11785;49.500;8.288;2024-02-23T07:17:51;6.30;99.90
23233;DHT22;11785;49.500;8.288;2024-02-23T07:20:17;6.20;99.90
23233;DHT22;11785;49.500;8.288;2024-02-23T07:22:46;6.20;99.90
23233;DHT22;11785;49.500;8.288;2024-02-23T07:25:15;6.20;99.90
23233;DHT22;11785;49.500;8.288;2024-02-23T07:27:41;6.20;99.90
23233;DHT22;11785;49.500;8.288;2024-02-23T07:30:07;6.20;99.90
23233;DHT22;11785;49.500;8.288;2024-02-23T07:32:33;6.20;99.90
23233;DHT22;11785;49.500;8.288;2024-02-23T07:34:59;6.10;99.90
23233;DHT22;11785;49.500;8.288;2024-02-23T07:37:26;6.10;99.90
23233;DHT22;11785;49.500;8.288;2024-02-23T07:39:52;6.20;99.90
23233;DHT22;11785;49.500;8.288;2024-02-23T07:42:18;6.30;99.90
23233;DHT22;11785;49.500;8.288;2024-02-23T07:44:44;6.30;99.90
23233;DHT22;11785;49.500;8.288;2024-02-23T07:47:11;6.30;99.90
23233;DHT22;11785;49.500;8.288;2024-02-23T07:49:36;6.40;99.90
23233;DHT22;11785;49.500;8.288;2024-02-23T07:52:02;6.40;99.90
23233;DHT22;11785;49.500;8.288;2024-02-23T07:54:28;6.40;99.90
23233;DHT22;11785;49.500;8.288;2024-02-23T07:56:54;6.50;99.90
23233;DHT22;11785;49.500;8.288;2024-02-23T07:59:19;6.50;99.90
23233;DHT22;11785;49.500;8.288;2024-02-23T08:01:45;6.50;99.90
23233;DHT22;11785;49.500;8.288;2024-02-23T08:04:12;6.60;99.90
23233;DHT22;11785;49.500;8.288;2024-02-23T08:06:39;6.70;99.90
23233;DHT22;11785;49.500;8.288;2024-02-23T08:09:04;6.70;99.90
23233;DHT22;11785;49.500;8.288;2024-02-23T08:11:30;6.70;99.90
23233;DHT22;11785;49.500;8.288;2024-02-23T08:13:55;6.80;99.90
23233;DHT22;11785;49.500;8.288;2024-02-23T08:16:21;6.90;99.90
23233;DHT22;11785;49.500;8.288;2024-02-23T08:18:47;7.00;99.50
23233;DHT22;11785;49.500;8.288;2024-02-23T08:21:12;7.10;99.60
23233;DHT22;11785;49.500;8.288;2024-02-23T08:23:38;7.10;99.10
23233;DHT22;11785;49.500;8.288;2024-02-23T08:26:03;7.30;98.10
23233;DHT22;11785;49.500;8.288;2024-02-23T08:28:29;7.40;97.40
23233;DHT22;11785;49.500;8.288;2024-02-23T08:30:54;7.50;97.20
23233;DHT22;11785;49.500;8.288;2024-02-23T08:33:20;7.40;97.40
23233;DHT22;11785;49.500;8.288;2024-02-23T08:35:46;7.40;97.30
23233;DHT22;11785;49.500;8.288;2024-02-23T08:38:14;7.40;97.20
23233;DHT22;11785;49.500;8.288;2024-02-23T08:40:39;7.30;97.60
23233;DHT22;11785;49.500;8.288;2024-02-23T08:43:05;7.40;97.40
23233;DHT22;11785;49.500;8.288;2024-02-23T08:45:31;7.40;97.30
23233;DHT22;11785;49.500;8.288;2024-02-23T08:47:56;7.50;96.90
23233;DHT22;11785;49.500;8.288;2024-02-23T08:50:22;7.50;97.00
23233;DHT22;11785;49.500;8.288;2024-02-23T08:52:47;7.40;97.10
23233;DHT22;11785;49.500;8.288;2024-02-23T08:55:13;7.40;97.30
23233;DHT22;11785;49.500;8.288;2024-02-23T08:57:39;7.30;97.10
23233;DHT22;11785;49.500;8.288;2024-02-23T09:00:05;7.20;97.80
23233;DHT22;11785;49.500;8.288;2024-02-23T09:02:31;7.30;97.60
23233;DHT22;11785;49.500;8.288;2024-02-23T09:04:58;7.50;97.00
23233;DHT22;11785;49.500;8.288;2024-02-23T09:07:23;7.70;96.20
23233;DHT22;11785;49.500;8.288;2024-02-23T09:09:49;7.80;95.60
23233;DHT22;11785;49.500;8.288;2024-02-23T09:12:15;7.80;95.50
23233;DHT22;11785;49.500;8.288;2024-02-23T09:14:42;7.90;95.00
23233;DHT22;11785;49.500;8.288;2024-02-23T09:17:09;8.00;94.60
23233;DHT22;11785;49.500;8.288;2024-02-23T09:19:35;8.20;94.10
23233;DHT22;11785;49.500;8.288;2024-02-23T09:22:02;8.30;92.40
23233;DHT22;11785;49.500;8.288;2024-02-23T09:24:27;8.30;92.40
23233;DHT22;11785;49.500;8.288;2024-02-23T09:26:53;8.30;92.50
23233;DHT22;11785;49.500;8.288;2024-02-23T09:29:19;8.60;91.30
23233;DHT22;11785;49.500;8.288;2024-02-23T09:31:44;8.50;91.10
23233;DHT22;11785;49.500;8.288;2024-02-23T09:34:10;8.60;91.10
23233;DHT22;11785;49.500;8.288;2024-02-23T09:36:36;8.60;90.90
23233;DHT22;11785;49.500;8.288;2024-02-23T09:39:01;8.60;90.80
23233;DHT22;11785;49.500;8.288;2024-02-23T09:41:29;8.50;91.30
23233;DHT22;11785;49.500;8.288;2024-02-23T09:43:58;8.50;91.80
23233;DHT22;11785;49.500;8.288;2024-02-23T09:46:25;8.50;91.60
23233;DHT22;11785;49.500;8.288;2024-02-23T09:48:51;8.60;91.80
23233;DHT22;11785;49.500;8.288;2024-02-23T09:51:17;8.50;91.50
23233;DHT22;11785;49.500;8.288;2024-02-23T09:53:43;8.60;91.70
23233;DHT22;11785;49.500;8.288;2024-02-23T09:56:09;8.60;91.70
23233;DHT22;11785;49.500;8.288;2024-02-23T09:58:39;8.50;91.90
23233;DHT22;11785;49.500;8.288;2024-02-23T10:01:07;8.70;91.50
23233;DHT22;11785;49.500;8.288;2024-02-23T10:03:32;9.00;90.40
23233;DHT22;11785;49.500;8.288;2024-02-23T10:05:59;9.10;90.10
23233;DHT22;11785;49.500;8.288;2024-02-23T10:08:28;9.20;89.70
23233;DHT22;11785;49.500;8.288;2024-02-23T10:10:55;9.20;86.90
23233;DHT22;11785;49.500;8.288;2024-02-23T10:13:22;9.10;88.50
23233;DHT22;11785;49.500;8.288;2024-02-23T10:15:49;9.40;87.40
23233;DHT22;11785;49.500;8.288;2024-02-23T10:18:15;9.50;84.50
23233;DHT22;11785;49.500;8.288;2024-02-23T10:20:42;9.70;84.40
23233;DHT22;11785;49.500;8.288;2024-02-23T10:23:08;10.00;81.90
23233;DHT22;11785;49.500;8.288;2024-02-23T10:25:35;9.80;82.70
23233;DHT22;11785;49.500;8.288;2024-02-23T10:28:05;9.80;80.70
23233;DHT22;11785;49.500;8.288;2024-02-23T10:30:30;9.50;80.40
23233;DHT22;11785;49.500;8.288;2024-02-23T10:32:57;9.60;79.10
23233;DHT22;11785;49.500;8.288;2024-02-23T10:35:24;9.60;77.80
23233;DHT22;11785;49.500;8.288;2024-02-23T10:37:50;9.60;77.90
23233;DHT22;11785;49.500;8.288;2024-02-23T10:40:17;9.60;77.20
23233;DHT22;11785;49.500;8.288;2024-02-23T10:42:44;9.80;75.10
23233;DHT22;11785;49.500;8.288;2024-02-23T10:45:20;9.90;73.90
23233;DHT22;11785;49.500;8.288;2024-02-23T10:47:50;10.10;73.10
23233;DHT22;11785;49.500;8.288;2024-02-23T10:50:17;10.10;72.00
23233;DHT22;11785;49.500;8.288;2024-02-23T10:52:45;10.00;73.00
23233;DHT22;11785;49.500;8.288;2024-02-23T10:55:14;10.00;72.20
23233;DHT22;11785;49.500;8.288;2024-02-23T10:57:39;10.20;71.10
23233;DHT22;11785;49.500;8.288;2024-02-23T11:00:07;10.10;71.20
23233;DHT22;11785;49.500;8.288;2024-02-23T11:02:54;10.10;71.30
23233;DHT22;11785;49.500;8.288;2024-02-23T11:05:21;10.00;71.40
23233;DHT22;11785;49.500;8.288;2024-02-23T11:07:48;10.00;71.20
23233;DHT22;11785;49.500;8.288;2024-02-23T11:10:17;10.30;68.60
23233;DHT22;11785;49.500;8.288;2024-02-23T11:12:44;10.60;66.40
23233;DHT22;11785;49.500;8.288;2024-02-23T11:15:26;10.60;65.80
23233;DHT22;11785;49.500;8.288;2024-02-23T11:17:51;10.50;65.80
23233;DHT22;11785;49.500;8.288;2024-02-23T11:20:17;10.30;65.60
23233;DHT22;11785;49.500;8.288;2024-02-23T11:22:42;10.20;65.70
23233;DHT22;11785;49.500;8.288;2024-02-23T11:25:08;10.40;64.40
23233;DHT22;11785;49.500;8.288;2024-02-23T11:27:38;10.40;65.20
23233;DHT22;11785;49.500;8.288;2024-02-23T11:30:09;10.20;67.60
23233;DHT22;11785;49.500;8.288;2024-02-23T11:32:41;10.30;68.70
23233;DHT22;11785;49.500;8.288;2024-02-23T11:35:10;10.40;66.80
23233;DHT22;11785;49.500;8.288;2024-02-23T11:37:53;10.30;66.90
23233;DHT22;11785;49.500;8.288;2024-02-23T11:40:30;10.20;68.70
23233;DHT22;11785;49.500;8.288;2024-02-23T11:42:56;10.10;69.10
23233;DHT22;11785;49.500;8.288;2024-02-23T11:45:21;10.00;70.70
23233;DHT22;11785;49.500;8.288;2024-02-23T11:47:47;9.90;70.90
23233;DHT22;11785;49.500;8.288;2024-02-23T11:50:13;9.90;71.70
23233;DHT22;11785;49.500;8.288;2024-02-23T11:52:41;10.00;70.20
23233;DHT22;11785;49.500;8.288;2024-02-23T11:55:07;10.00;70.40
23233;DHT22;11785;49.500;8.288;2024-02-23T11:57:34;10.00;69.10
23233;DHT22;11785;49.500;8.288;2024-02-23T12:00:01;9.80;70.60
23233;DHT22;11785;49.500;8.288;2024-02-23T12:02:28;9.80;70.10
23233;DHT22;11785;49.500;8.288;2024-02-23T12:04:54;9.80;70.50
23233;DHT22;11785;49.500;8.288;2024-02-23T12:07:19;9.80;70.70
23233;DHT22;11785;49.500;8.288;2024-02-23T12:09:47;9.80;70.10
23233;DHT22;11785;49.500;8.288;2024-02-23T12:12:12;9.80;71.20
23233;DHT22;11785;49.500;8.288;2024-02-23T12:14:39;9.90;72.00
23233;DHT22;11785;49.500;8.288;2024-02-23T12:17:08;10.00;69.80
23233;DHT22;11785;49.500;8.288;2024-02-23T12:19:40;10.10;70.30
23233;DHT22;11785;49.500;8.288;2024-02-23T12:22:06;10.30;67.60
23233;DHT22;11785;49.500;8.288;2024-02-23T12:24:32;10.80;63.20
23233;DHT22;11785;49.500;8.288;2024-02-23T12:26:57;10.80;62.10
23233;DHT22;11785;49.500;8.288;2024-02-23T12:29:23;10.70;62.20
23233;DHT22;11785;49.500;8.288;2024-02-23T12:31:49;10.50;65.40
23233;DHT22;11785;49.500;8.288;2024-02-23T12:34:15;10.30;68.80
23233;DHT22;11785;49.500;8.288;2024-02-23T12:36:41;10.30;68.80
23233;DHT22;11785;49.500;8.288;2024-02-23T12:39:07;10.20;68.60
23233;DHT22;11785;49.500;8.288;2024-02-23T12:41:33;10.10;69.70
23233;DHT22;11785;49.500;8.288;2024-02-23T12:43:58;10.10;71.40
23233;DHT22;11785;49.500;8.288;2024-02-23T12:46:24;10.10;71.60
23233;DHT22;11785;49.500;8.288;2024-02-23T12:48:50;10.40;69.70
23233;DHT22;11785;49.500;8.288;2024-02-23T12:51:16;10.60;69.50
23233;DHT22;11785;49.500;8.288;2024-02-23T12:53:42;10.80;67.80
23233;DHT22;11785;49.500;8.288;2024-02-23T12:56:13;11.00;65.00
23233;DHT22;11785;49.500;8.288;2024-02-23T12:58:43;10.90;63.50
23233;DHT22;11785;49.500;8.288;2024-02-23T13:01:10;10.60;67.60
23233;DHT22;11785;49.500;8.288;2024-02-23T13:03:37;10.50;68.00
23233;DHT22;11785;49.500;8.288;2024-02-23T13:06:03;10.60;68.80
23233;DHT22;11785;49.500;8.288;2024-02-23T13:08:29;10.50;69.20
23233;DHT22;11785;49.500;8.288;2024-02-23T13:10:56;10.30;70.30
23233;DHT22;11785;49.500;8.288;2024-02-23T13:13:22;10.30;70.50
23233;DHT22;11785;49.500;8.288;2024-02-23T13:15:49;10.30;70.50
23233;DHT22;11785;49.500;8.288;2024-02-23T13:18:15;10.40;71.50
23233;DHT22;11785;49.500;8.288;2024-02-23T13:20:41;10.60;71.50
23233;DHT22;11785;49.500;8.288;2024-02-23T13:23:10;10.70;67.90
23233;DHT22;11785;49.500;8.288;2024-02-23T13:25:38;10.50;69.00
23233;DHT22;11785;49.500;8.288;2024-02-23T13:28:05;10.40;68.80
23233;DHT22;11785;49.500;8.288;2024-02-23T13:30:31;10.20;70.70
23233;DHT22;11785;49.500;8.288;2024-02-23T13:32:57;10.20;70.40
23233;DHT22;11785;49.500;8.288;2024-02-23T13:35:22;10.10;71.60
23233;DHT22;11785;49.500;8.288;2024-02-23T13:37:48;10.20;72.70
23233;DHT22;11785;49.500;8.288;2024-02-23T13:40:15;10.60;73.20
23233;DHT22;11785;49.500;8.288;2024-02-23T13:42:41;10.60;69.50
23233;DHT22;11785;49.500;8.288;2024-02-23T13:45:07;10.30;72.80
23233;DHT22;11785;49.500;8.288;2024-02-23T13:47:34;10.10;74.00
23233;DHT22;11785;49.500;8.288;2024-02-23T13:50:00;10.40;72.80
23233;DHT22;11785;49.500;8.288;2024-02-23T13:52:26;10.80;68.30
23233;DHT22;11785;49.500;8.288;2024-02-23T13:54:52;10.90;67.80
23233;DHT22;11785;49.500;8.288;2024-02-23T13:57:17;10.90;68.80
23233;DHT22;11785;49.500;8.288;2024-02-23T13:59:43;11.40;65.00
23233;DHT22;11785;49.500;8.288;2024-02-23T14:02:09;11.80;60.90
23233;DHT22;11785;49.500;8.288;2024-02-23T14:04:34;13.10;59.70
23233;DHT22;11785;49.500;8.288;2024-02-23T14:07:01;16.40;58.70
23233;DHT22;11785;49.500;8.288;2024-02-23T14:09:26;18.30;57.90
23233;DHT22;11785;49.500;8.288;2024-02-23T14:11:52;17.60;57.90
23233;DHT22;11785;49.500;8.288;2024-02-23T14:14:18;16.30;58.20
23233;DHT22;11785;49.500;8.288;2024-02-23T14:16:45;18.00;57.90
23233;DHT22;11785;49.500;8.288;2024-02-23T14:19:11;20.20;57.20
23233;DHT22;11785;49.500;8.288;2024-02-23T14:21:36;21.20;56.80
23233;DHT22;11785;49.500;8.288;2024-02-23T14:24:03;22.50;56.40
23233;DHT22;11785;49.500;8.288;2024-02-23T14:26:29;22.10;56.30
23233;DHT22;11785;49.500;8.288;2024-02-23T14:28:55;22.30;56.20
23233;DHT22;11785;49.500;8.288;2024-02-23T14:31:20;20.30;56.60
23233;DHT22;11785;49.500;8.288;2024-02-23T14:33:46;18.80;57.00
23233;DHT22;11785;49.500;8.288;2024-02-23T14:36:11;19.10;57.00
23233;DHT22;11785;49.500;8.288;2024-02-23T14:38:37;19.20;56.90
23233;DHT22;11785;49.500;8.288;2024-02-23T14:41:03;16.20;57.60
23233;DHT22;11785;49.500;8.288;2024-02-23T14:43:28;14.00;58.20
23233;DHT22;11785;49.500;8.288;2024-02-23T14:45:57;12.70;58.60
23233;DHT22;11785;49.500;8.288;2024-02-23T14:48:23;11.90;58.80
23233;DHT22;11785;49.500;8.288;2024-02-23T14:50:48;11.40;59.00
23233;DHT22;11785;49.500;8.288;2024-02-23T14:53:15;11.00;59.10
23233;DHT22;11785;49.500;8.288;2024-02-23T14:55:41;10.90;59.20
23233;DHT22;11785;49.500;8.288;2024-02-23T14:58:06;10.80;59.20
23233;DHT22;11785;49.500;8.288;2024-02-23T15:00:32;11.00;59.20
23233;DHT22;11785;49.500;8.288;2024-02-23T15:02:58;11.10;59.30
23233;DHT22;11785;49.500;8.288;2024-02-23T15:05:24;11.20;59.30
23233;DHT22;11785;49.500;8.288;2024-02-23T15:07:49;11.80;59.20
23233;DHT22;11785;49.500;8.288;2024-02-23T15:10:15;15.40;58.20
23233;DHT22;11785;49.500;8.288;2024-02-23T15:12:40;19.00;57.30
23233;DHT22;11785;49.500;8.288;2024-02-23T15:15:07;20.60;56.70
23233;DHT22;11785;49.500;8.288;2024-02-23T15:17:33;21.20;56.50
23233;DHT22;11785;49.500;8.288;2024-02-23T15:19:58;21.20;56.40
23233;DHT22;11785;49.500;8.288;2024-02-23T15:22:24;19.90;56.70
23233;DHT22;11785;49.500;8.288;2024-02-23T15:24:51;18.10;57.10
23233;DHT22;11785;49.500;8.288;2024-02-23T15:27:17;16.10;57.60
23233;DHT22;11785;49.500;8.288;2024-02-23T15:29:43;15.50;57.90
23233;DHT22;11785;49.500;8.288;2024-02-23T15:32:09;16.10;57.70
23233;DHT22;11785;49.500;8.288;2024-02-23T15:34:36;14.40;58.10
23233;DHT22;11785;49.500;8.288;2024-02-23T15:37:02;13.20;58.50